Abrela — EAVW — position and weather

sailwx.info

Track history (hours):
 
Tides and Currents Weather Stations Pressure Air Temp Water Temp Dewpoint Dewpoint Depression Visibility Wind Speed Wind Dir Waves Ship Positions

Abrela

Last reported at 2016-Jul-06 07:34 UTC. Time now 2016-Jul-25 20:05 UTC.
Position N 43°41' W 007°36'.
Warning: this ship's position is 19 days out of date.

Length 30 m; draft 3 m.

Type: Fishing. MMSI: 224204490.

Date/timePositionNaut miles runAvg speedWind from/ knotsBaromVisibWave heightAir tempDewpointWater temp
2016-Jul-06 07:34N 43°41' W 007°36'0 0.0
2016-Jul-06 06:34N 43°41' W 007°36'0 0.0
2016-Jul-06 05:33N 43°41' W 007°36'0 0.0
2016-Jul-06 04:33N 43°41' W 007°36'0 0.0
2016-Jul-06 03:33N 43°41' W 007°36'0 0.0
2016-Jul-06 02:34N 43°41' W 007°36'0 0.0
2016-Jul-06 01:34N 43°41' W 007°36'0 0.0
2016-Jul-06 00:34N 43°41' W 007°36'0 0.0
2016-Jul-05 23:34N 43°41' W 007°36'0 0.0
2016-Jul-05 22:34N 43°41' W 007°36'0 0.0
2016-Jul-05 21:34N 43°41' W 007°36'0 0.0
2016-Jul-05 20:33N 43°41' W 007°36'0 0.0
2016-Jul-05 19:34N 43°41' W 007°36'0 0.0
2016-Jul-05 18:33N 43°41' W 007°36'0 0.0
2016-Jul-05 17:34N 43°41' W 007°36'0 0.0
2016-Jul-05 16:34N 43°41' W 007°36'1 1.0
2016-Jul-05 15:33N 43°42' W 007°36'1 1.0
2016-Jul-05 14:33N 43°41' W 007°36'0 0.0
2016-Jul-05 13:33N 43°41' W 007°36'0 0.0
2016-Jul-05 12:33N 43°41' W 007°36'0 0.0
2016-Jul-05 11:34N 43°41' W 007°36'0 0.0
2016-Jul-05 10:33N 43°41' W 007°36'0 0.0
2016-Jul-05 09:33N 43°41' W 007°36'0 0.0
2016-Jul-05 08:31N 43°41' W 007°36'0 0.0
2016-Jul-05 07:34N 43°41' W 007°36'  
2016-Jul-01 20:23N 43°41' W 007°36'0 0.2
2016-Jul-01 19:33N 43°41' W 007°36'0 0.0
2016-Jul-01 18:33N 43°41' W 007°36'1 0.7
2016-Jul-01 17:33N 43°41' W 007°36'4 3.8
2016-Jul-01 16:33N 43°45' W 007°35'6 5.7
2016-Jul-01 15:33N 43°51' W 007°33'10 9.9
2016-Jul-01 14:33N 44°00' W 007°30'6 0.4
2016-Jul-01 00:05N 43°54' W 007°30'5 9.3
2016-Jun-30 23:33N 43°50' W 007°33'9 9.2
2016-Jun-30 22:33N 43°41' W 007°36'0 0.1
2016-Jun-30 21:33N 43°41' W 007°36'0 0.0
2016-Jun-30 20:33N 43°41' W 007°36'0 0.0
2016-Jun-30 19:33N 43°41' W 007°36'5 4.8
2016-Jun-30 18:34N 43°45' W 007°36'9 8.7
2016-Jun-30 17:32N 43°53' W 007°43'9 6.8
2016-Jun-30 16:12N 44°01' W 007°50'0 0.4
2016-Jun-30 15:27N 44°01' W 007°50'0 0.1
2016-Jun-30 14:28N 44°01' W 007°50'14 0.3
2016-Jun-28 22:23N 43°49' W 007°40'810.1
2016-Jun-28 21:34N 43°41' W 007°36'1 0.8
2016-Jun-28 20:33N 43°41' W 007°36'5 5.5
2016-Jun-28 19:33N 43°46' W 007°37'0 0.0
2016-Jun-26 22:33N 43°46' W 007°37'6 5.6
2016-Jun-26 21:32N 43°41' W 007°36'0 0.0
2016-Jun-26 20:33N 43°41' W 007°36'0 0.0
2016-Jun-26 19:33N 43°41' W 007°36'0 0.0
2016-Jun-26 18:33N 43°41' W 007°36'0 0.0
2016-Jun-26 17:33N 43°41' W 007°36'0 0.0
2016-Jun-26 16:32N 43°41' W 007°36'0 0.0
2016-Jun-26 15:33N 43°41' W 007°36'0 0.0
2016-Jun-26 14:33N 43°41' W 007°36'0 0.0
2016-Jun-26 13:33N 43°41' W 007°36'0 0.0
2016-Jun-26 12:32N 43°41' W 007°36'0 0.0
2016-Jun-26 11:33N 43°41' W 007°36'0 0.0
2016-Jun-26 10:32N 43°41' W 007°36'0 0.0
2016-Jun-26 09:33N 43°41' W 007°36'0 0.0
2016-Jun-26 08:33N 43°41' W 007°36'  
Track history (hours):
 
Tides and Currents Weather Stations Pressure Air Temp Water Temp Dewpoint Dewpoint Depression Visibility Wind Speed Wind Dir Waves Ship Positions

Abrela

Last reported at 2016-Jul-06 07:34 UTC. Time now 2016-Jul-25 20:05 UTC.
Position N 43°41' W 007°36'.
Warning: this ship's position is 19 days out of date.

Length 30 m; draft 3 m.

Type: Fishing. MMSI: 224204490.

Date/timePositionNaut miles runAvg speedWind from/ knotsBaromVisibWave heightAir tempDewpointWater temp
2016-Jul-06 07:34N 43°41' W 007°36'0 0.0
2016-Jul-06 06:34N 43°41' W 007°36'0 0.0
2016-Jul-06 05:33N 43°41' W 007°36'0 0.0
2016-Jul-06 04:33N 43°41' W 007°36'0 0.0
2016-Jul-06 03:33N 43°41' W 007°36'0 0.0
2016-Jul-06 02:34N 43°41' W 007°36'0 0.0
2016-Jul-06 01:34N 43°41' W 007°36'0 0.0
2016-Jul-06 00:34N 43°41' W 007°36'0 0.0
2016-Jul-05 23:34N 43°41' W 007°36'0 0.0
2016-Jul-05 22:34N 43°41' W 007°36'0 0.0
2016-Jul-05 21:34N 43°41' W 007°36'0 0.0
2016-Jul-05 20:33N 43°41' W 007°36'0 0.0
2016-Jul-05 19:34N 43°41' W 007°36'0 0.0
2016-Jul-05 18:33N 43°41' W 007°36'0 0.0
2016-Jul-05 17:34N 43°41' W 007°36'0 0.0
2016-Jul-05 16:34N 43°41' W 007°36'1 1.0
2016-Jul-05 15:33N 43°42' W 007°36'1 1.0
2016-Jul-05 14:33N 43°41' W 007°36'0 0.0
2016-Jul-05 13:33N 43°41' W 007°36'0 0.0
2016-Jul-05 12:33N 43°41' W 007°36'0 0.0
2016-Jul-05 11:34N 43°41' W 007°36'0 0.0
2016-Jul-05 10:33N 43°41' W 007°36'0 0.0
2016-Jul-05 09:33N 43°41' W 007°36'0 0.0
2016-Jul-05 08:31N 43°41' W 007°36'0 0.0
2016-Jul-05 07:34N 43°41' W 007°36'  
2016-Jul-01 20:23N 43°41' W 007°36'0 0.2
2016-Jul-01 19:33N 43°41' W 007°36'0 0.0
2016-Jul-01 18:33N 43°41' W 007°36'1 0.7
2016-Jul-01 17:33N 43°41' W 007°36'4 3.8
2016-Jul-01 16:33N 43°45' W 007°35'6 5.7
2016-Jul-01 15:33N 43°51' W 007°33'10 9.9
2016-Jul-01 14:33N 44°00' W 007°30'6 0.4
2016-Jul-01 00:05N 43°54' W 007°30'5 9.3
2016-Jun-30 23:33N 43°50' W 007°33'9 9.2
2016-Jun-30 22:33N 43°41' W 007°36'0 0.1
2016-Jun-30 21:33N 43°41' W 007°36'0 0.0
2016-Jun-30 20:33N 43°41' W 007°36'0 0.0
2016-Jun-30 19:33N 43°41' W 007°36'5 4.8
2016-Jun-30 18:34N 43°45' W 007°36'9 8.7
2016-Jun-30 17:32N 43°53' W 007°43'9 6.8
2016-Jun-30 16:12N 44°01' W 007°50'0 0.4
2016-Jun-30 15:27N 44°01' W 007°50'0 0.1
2016-Jun-30 14:28N 44°01' W 007°50'14 0.3
2016-Jun-28 22:23N 43°49' W 007°40'810.1
2016-Jun-28 21:34N 43°41' W 007°36'1 0.8
2016-Jun-28 20:33N 43°41' W 007°36'5 5.5
2016-Jun-28 19:33N 43°46' W 007°37'0 0.0
2016-Jun-26 22:33N 43°46' W 007°37'6 5.6
2016-Jun-26 21:32N 43°41' W 007°36'0 0.0
2016-Jun-26 20:33N 43°41' W 007°36'0 0.0
2016-Jun-26 19:33N 43°41' W 007°36'0 0.0
2016-Jun-26 18:33N 43°41' W 007°36'0 0.0
2016-Jun-26 17:33N 43°41' W 007°36'0 0.0
2016-Jun-26 16:32N 43°41' W 007°36'0 0.0
2016-Jun-26 15:33N 43°41' W 007°36'0 0.0
2016-Jun-26 14:33N 43°41' W 007°36'0 0.0
2016-Jun-26 13:33N 43°41' W 007°36'0 0.0
2016-Jun-26 12:32N 43°41' W 007°36'0 0.0
2016-Jun-26 11:33N 43°41' W 007°36'0 0.0
2016-Jun-26 10:32N 43°41' W 007°36'0 0.0
2016-Jun-26 09:33N 43°41' W 007°36'0 0.0
2016-Jun-26 08:33N 43°41' W 007°36'  

Dump ship's entire track history